Time;durP1;ratioP1;P1;durP2;ratioP2;P2;SDS_P1;SDS_P2;PMS_P1;PMS_P2;Temp;Humidity;BMP_temperature;BMP_pressure;BME280_temperature;BME280_humidity;BME280_pressure;Samples;Min_cycle;Max_cycle;Signal;HPM_P1;HPM_P2
2023/11/26 00:00:47;;;;;;;1.58;1.38;;;2.20;89.70;;;;;;5001909;28;20026;-76
2023/11/26 00:03:14;;;;;;;6.13;2.03;;;2.20;89.90;;;;;;5000946;28;20474;-76
2023/11/26 00:05:39;;;;;;;5.45;2.40;;;2.20;90.00;;;;;;5016665;28;20026;-76
2023/11/26 00:08:05;;;;;;;7.60;3.83;;;2.20;90.10;;;;;;5016559;28;20030;-75
2023/11/26 00:10:30;;;;;;;5.47;2.80;;;2.20;90.10;;;;;;5016367;28;20049;-75
2023/11/26 00:12:56;;;;;;;5.40;2.78;;;2.10;90.10;;;;;;4998772;28;20040;-75
2023/11/26 00:15:22;;;;;;;6.30;3.42;;;2.10;90.30;;;;;;5016265;28;20037;-75
2023/11/26 00:17:47;;;;;;;2.05;1.40;;;2.10;90.20;;;;;;5016154;28;20101;-75
2023/11/26 00:20:13;;;;;;;0.80;0.80;;;2.10;90.20;;;;;;5016125;28;20030;-75
2023/11/26 00:22:38;;;;;;;2.40;1.00;;;2.10;90.60;;;;;;5016496;28;20443;-75
2023/11/26 00:25:04;;;;;;;2.97;1.02;;;2.10;90.80;;;;;;5016122;28;20022;-75
2023/11/26 00:27:30;;;;;;;3.97;1.20;;;2.10;90.70;;;;;;5016053;28;20390;-75
2023/11/26 00:29:56;;;;;;;1.40;1.20;;;2.00;90.60;;;;;;5015735;28;20080;-75
2023/11/26 00:32:21;;;;;;;2.95;1.48;;;2.10;90.80;;;;;;5016018;28;20030;-75
2023/11/26 00:34:47;;;;;;;2.33;1.60;;;2.10;90.90;;;;;;5015932;28;20141;-75
2023/11/26 00:37:12;;;;;;;2.08;1.10;;;2.10;90.80;;;;;;5015944;28;20022;-75
2023/11/26 00:39:38;;;;;;;2.03;1.38;;;2.10;90.70;;;;;;4998326;28;20033;-74
2023/11/26 00:42:04;;;;;;;1.75;1.10;;;2.00;90.70;;;;;;5015820;28;20485;-74
2023/11/26 00:44:29;;;;;;;1.20;1.10;;;2.10;90.90;;;;;;5015661;28;20041;-74
2023/11/26 00:46:55;;;;;;;1.42;1.10;;;2.10;90.80;;;;;;5015674;28;20029;-74
2023/11/26 00:49:21;;;;;;;1.50;1.40;;;2.10;90.70;;;;;;5015537;28;20022;-75
2023/11/26 00:51:47;;;;;;;1.90;1.13;;;2.20;90.60;;;;;;5015668;28;20378;-75
2023/11/26 00:54:13;;;;;;;1.75;1.17;;;2.20;90.40;;;;;;5015620;28;20034;-74
2023/11/26 00:56:38;;;;;;;4.20;1.92;;;2.10;90.40;;;;;;5015594;28;20036;-75
2023/11/26 00:59:04;;;;;;;3.92;1.40;;;2.20;90.50;;;;;;5015490;28;20419;-75
2023/11/26 01:01:31;;;;;;;3.50;1.63;;;2.20;90.40;;;;;;4997805;28;20153;-76
2023/11/26 01:03:57;;;;;;;1.83;1.30;;;2.30;90.60;;;;;;5015490;28;20471;-75
2023/11/26 01:06:22;;;;;;;2.45;1.33;;;2.30;90.40;;;;;;5015354;28;20050;-75
2023/11/26 01:08:48;;;;;;;2.30;1.50;;;2.30;90.00;;;;;;5015140;28;20069;-75
2023/11/26 01:11:14;;;;;;;3.28;1.55;;;2.30;90.00;;;;;;5015194;28;20033;-75
2023/11/26 01:13:41;;;;;;;5.55;3.60;;;2.30;89.70;;;;;;5015244;28;20026;-76
2023/11/26 01:16:07;;;;;;;17.88;10.43;;;2.30;89.70;;;;;;5015130;28;20049;-75
2023/11/26 01:18:33;;;;;;;12.85;6.85;;;2.30;89.60;;;;;;5015244;28;20072;-76
2023/11/26 01:20:58;;;;;;;8.73;5.38;;;2.20;89.60;;;;;;5015121;28;20025;-74
2023/11/26 01:23:24;;;;;;;8.05;4.90;;;2.20;89.90;;;;;;5014910;28;20125;-74
2023/11/26 01:25:49;;;;;;;5.05;1.90;;;2.10;90.00;;;;;;4997488;28;20026;-74
2023/11/26 01:28:15;;;;;;;3.50;1.30;;;2.20;90.20;;;;;;5014923;28;20080;-74
2023/11/26 01:30:41;;;;;;;1.98;1.60;;;2.20;90.10;;;;;;5014769;28;20118;-74
2023/11/26 01:33:07;;;;;;;1.85;1.40;;;2.20;89.90;;;;;;5014862;28;20069;-75
2023/11/26 01:35:33;;;;;;;2.80;1.70;;;2.20;89.90;;;;;;5014909;28;20479;-74
2023/11/26 01:37:59;;;;;;;2.72;1.48;;;2.20;89.70;;;;;;5014781;28;20044;-75
2023/11/26 01:40:25;;;;;;;3.00;1.67;;;2.10;89.80;;;;;;5014674;28;20029;-75
2023/11/26 01:42:51;;;;;;;1.40;1.30;;;2.10;89.90;;;;;;5014774;28;20026;-73
2023/11/26 01:45:16;;;;;;;3.67;1.50;;;2.10;89.90;;;;;;5014635;28;20040;-75
2023/11/26 01:47:42;;;;;;;1.95;1.35;;;2.00;90.00;;;;;;5014482;28;20026;-74
2023/11/26 01:50:09;;;;;;;2.72;1.50;;;2.00;90.30;;;;;;5014464;28;20041;-73
2023/11/26 01:52:35;;;;;;;2.90;1.63;;;2.00;90.30;;;;;;5014521;28;20080;-73
2023/11/26 01:55:01;;;;;;;1.92;1.40;;;1.90;90.40;;;;;;5014361;28;20033;-73
2023/11/26 01:57:27;;;;;;;2.63;1.23;;;1.90;90.60;;;;;;5014094;28;20371;-73
2023/11/26 01:59:53;;;;;;;1.60;1.50;;;1.90;90.80;;;;;;5014011;28;20026;-74
2023/11/26 02:02:18;;;;;;;1.70;1.40;;;1.90;90.80;;;;;;5014236;28;20022;-74
2023/11/26 02:04:44;;;;;;;2.40;1.75;;;1.90;90.80;;;;;;5014265;28;20396;-74
2023/11/26 02:07:10;;;;;;;1.95;1.80;;;1.90;90.90;;;;;;5014199;28;20088;-74
2023/11/26 02:09:37;;;;;;;1.80;1.70;;;2.00;91.00;;;;;;5014106;28;20076;-74
2023/11/26 02:12:07;;;;;;;2.28;2.00;;;2.00;91.10;;;;;;5014146;28;20084;-74
2023/11/26 02:14:33;;;;;;;4.50;2.97;;;2.00;90.70;;;;;;5014092;28;20105;-75
2023/11/26 02:16:58;;;;;;;4.75;3.08;;;2.00;90.60;;;;;;5013929;28;20100;-75
2023/11/26 02:19:37;;;;;;;3.58;2.15;;;2.00;90.50;;;;;;4996354;28;20036;-74
2023/11/26 02:22:07;;;;;;;1.88;1.35;;;2.00;90.30;;;;;;4995821;28;20401;-75
2023/11/26 02:24:44;;;;;;;3.63;1.77;;;1.90;90.50;;;;;;5014310;28;20053;-74
2023/11/26 02:27:10;;;;;;;3.28;1.75;;;2.00;90.50;;;;;;5013863;28;20018;-74
2023/11/26 02:29:35;;;;;;;3.67;1.20;;;2.00;90.40;;;;;;5013847;28;20092;-74
2023/11/26 02:32:01;;;;;;;3.47;1.05;;;2.00;90.30;;;;;;5013684;28;20026;-74
2023/11/26 02:34:27;;;;;;;1.60;1.00;;;1.90;90.40;;;;;;5013889;28;20467;-73
2023/11/26 02:36:52;;;;;;;2.45;1.38;;;1.90;90.60;;;;;;5013728;28;20034;-74
2023/11/26 02:39:18;;;;;;;1.33;0.70;;;1.90;90.60;;;;;;5013705;28;20030;-74
2023/11/26 02:41:44;;;;;;;0.45;0.30;;;1.90;90.60;;;;;;4996151;28;20030;-74
2023/11/26 02:44:10;;;;;;;0.47;0.40;;;1.90;90.70;;;;;;5013855;28;20034;-73
2023/11/26 02:46:36;;;;;;;0.40;0.40;;;1.80;90.70;;;;;;5014201;28;20033;-75
2023/11/26 02:49:03;;;;;;;0.40;0.40;;;1.80;90.80;;;;;;5000272;28;20029;-75
2023/11/26 02:51:28;;;;;;;0.50;0.40;;;1.80;90.90;;;;;;5018091;28;20494;-76
2023/11/26 02:53:54;;;;;;;0.13;0.13;;;1.80;90.90;;;;;;5013407;28;20065;-74
2023/11/26 02:56:19;;;;;;;0.30;0.30;;;1.90;90.90;;;;;;5013382;28;20033;-75
2023/11/26 02:58:45;;;;;;;0.80;0.40;;;1.90;90.70;;;;;;5013094;28;20487;-74
2023/11/26 03:01:18;;;;;;;1.20;0.40;;;1.90;90.70;;;;;;5013288;28;20053;-75
2023/11/26 03:03:45;;;;;;;42.92;20.50;;;1.90;90.70;;;;;;5013207;28;20144;-76
2023/11/26 03:06:11;;;;;;;11.90;4.53;;;2.00;90.60;;;;;;4995501;28;20054;-74
2023/11/26 03:08:38;;;;;;;3.13;1.25;;;2.00;90.50;;;;;;5013186;28;20067;-74
2023/11/26 03:13:49;;;;;;;1.73;0.70;;;2.10;90.60;;;;;;5013186;28;20129;-75
2023/11/26 03:16:15;;;;;;;0.80;0.55;;;2.10;90.40;;;;;;5013063;28;20506;-75
2023/11/26 03:18:41;;;;;;;0.40;0.32;;;2.10;90.20;;;;;;5012995;28;20037;-73
2023/11/26 03:21:09;;;;;;;0.75;0.30;;;2.10;90.10;;;;;;5013010;28;20383;-74
2023/11/26 03:23:35;;;;;;;1.10;0.35;;;2.20;89.90;;;;;;5013239;28;20459;-74
2023/11/26 03:26:01;;;;;;;1.48;0.30;;;2.20;90.10;;;;;;5013240;28;20025;-74
2023/11/26 03:28:27;;;;;;;1.30;0.70;;;2.30;90.20;;;;;;5015900;28;20026;-74
2023/11/26 03:30:52;;;;;;;0.30;0.30;;;2.30;90.10;;;;;;5025606;28;20045;-74
2023/11/26 03:33:19;;;;;;;0.38;0.30;;;2.40;89.80;;;;;;5020703;28;20026;-75
2023/11/26 03:35:45;;;;;;;0.77;0.30;;;2.40;89.70;;;;;;5019229;28;20506;-74
2023/11/26 03:38:12;;;;;;;0.82;0.35;;;2.40;89.50;;;;;;5016871;28;20030;-74
2023/11/26 03:40:38;;;;;;;0.10;0.10;;;2.40;89.30;;;;;;5016919;28;20102;-74
2023/11/26 03:43:04;;;;;;;0.30;0.30;;;2.50;89.40;;;;;;5016804;28;20054;-75
2023/11/26 03:45:30;;;;;;;0.63;0.38;;;2.50;89.20;;;;;;5016801;28;20026;-76
2023/11/26 03:47:55;;;;;;;0.88;0.45;;;2.50;89.00;;;;;;5016721;28;20022;-74
2023/11/26 03:50:21;;;;;;;1.45;0.47;;;2.50;88.60;;;;;;5016484;28;20061;-75
2023/11/26 03:52:48;;;;;;;0.82;0.60;;;2.40;88.40;;;;;;5016625;28;20021;-74
2023/11/26 03:55:14;;;;;;;0.90;0.50;;;2.40;88.60;;;;;;5016498;28;20106;-75
2023/11/26 03:57:40;;;;;;;1.15;0.80;;;2.40;88.50;;;;;;5016290;28;20402;-74
2023/11/26 04:00:09;;;;;;;2.50;0.80;;;2.40;88.20;;;;;;5016435;28;20084;-74
2023/11/26 04:02:35;;;;;;;2.70;0.90;;;2.40;88.40;;;;;;5016269;28;20471;-75
2023/11/26 04:05:03;;;;;;;0.95;0.70;;;2.30;88.30;;;;;;4998724;28;20037;-74
2023/11/26 04:07:29;;;;;;;0.43;0.43;;;2.30;88.40;;;;;;5016337;28;20026;-75
2023/11/26 04:09:55;;;;;;;1.38;0.60;;;2.20;88.70;;;;;;5016274;28;20057;-74
2023/11/26 04:12:20;;;;;;;2.08;0.60;;;2.10;89.00;;;;;;5016515;28;20160;-75
2023/11/26 04:15:12;;;;;;;0.50;0.47;;;2.10;89.10;;;;;;5016224;28;20486;-74
2023/11/26 04:17:38;;;;;;;0.52;0.43;;;2.10;89.70;;;;;;5011942;28;20113;-74
2023/11/26 04:20:08;;;;;;;0.88;0.43;;;2.10;89.60;;;;;;5015823;28;20143;-75
2023/11/26 04:22:34;;;;;;;0.82;0.40;;;2.10;89.60;;;;;;5016059;28;20022;-74
2023/11/26 04:24:59;;;;;;;2.45;0.50;;;2.20;89.50;;;;;;5015867;28;20101;-75
2023/11/26 04:27:25;;;;;;;1.67;0.88;;;2.20;89.40;;;;;;5015884;28;20030;-74
2023/11/26 04:29:51;;;;;;;0.82;0.70;;;2.30;89.40;;;;;;5015769;28;20018;-75
2023/11/26 04:32:17;;;;;;;0.38;0.32;;;2.30;89.40;;;;;;5015857;28;20034;-74
2023/11/26 04:34:42;;;;;;;0.65;0.45;;;2.30;89.00;;;;;;5015791;28;20029;-75
2023/11/26 04:37:09;;;;;;;0.75;0.40;;;2.30;88.70;;;;;;5015861;28;20438;-74
2023/11/26 04:39:35;;;;;;;0.77;0.50;;;2.30;88.60;;;;;;5015813;28;20374;-75
2023/11/26 04:42:01;;;;;;;0.50;0.50;;;2.30;88.80;;;;;;5015675;28;20038;-75
2023/11/26 04:44:27;;;;;;;4.00;0.60;;;2.30;89.70;;;;;;5015214;28;20022;-75
2023/11/26 04:46:53;;;;;;;1.17;0.50;;;2.30;88.90;;;;;;5015555;28;20553;-75
2023/11/26 04:49:19;;;;;;;1.00;0.60;;;2.30;88.90;;;;;;5015469;28;20030;-75
2023/11/26 04:51:47;;;;;;;0.73;0.50;;;2.30;89.00;;;;;;5015569;28;20092;-75
2023/11/26 04:54:13;;;;;;;1.05;0.80;;;2.40;88.90;;;;;;5015524;28;20022;-75
2023/11/26 04:56:39;;;;;;;2.55;0.60;;;2.40;88.80;;;;;;5015362;28;20033;-75
2023/11/26 04:59:06;;;;;;;1.70;0.55;;;2.50;88.90;;;;;;5015168;28;20050;-75
2023/11/26 05:01:34;;;;;;;1.10;0.80;;;2.40;88.70;;;;;;5015210;28;20441;-75
2023/11/26 05:04:00;;;;;;;2.13;1.63;;;2.40;88.80;;;;;;4997873;28;20032;-76
2023/11/26 05:06:26;;;;;;;3.25;2.20;;;2.50;88.90;;;;;;5015376;28;20034;-76
2023/11/26 05:08:51;;;;;;;3.63;1.88;;;2.50;88.70;;;;;;5014941;28;20050;-76
2023/11/26 05:11:17;;;;;;;2.45;1.70;;;2.50;88.60;;;;;;5015108;28;20505;-75
2023/11/26 05:13:42;;;;;;;2.22;1.52;;;2.50;88.30;;;;;;5015000;28;20018;-75
2023/11/26 05:16:08;;;;;;;2.25;1.30;;;2.50;88.50;;;;;;5015029;28;20153;-75
2023/11/26 05:18:34;;;;;;;1.50;1.38;;;2.50;88.60;;;;;;5015012;28;20020;-75
2023/11/26 05:21:02;;;;;;;1.10;1.00;;;2.50;88.60;;;;;;5015013;28;20067;-75
2023/11/26 05:23:27;;;;;;;1.10;0.95;;;2.50;88.50;;;;;;5015023;28;20050;-75
2023/11/26 05:25:53;;;;;;;1.00;0.90;;;2.60;88.50;;;;;;4997205;28;20072;-76
2023/11/26 05:28:19;;;;;;;1.33;0.90;;;2.60;88.50;;;;;;5014888;28;20386;-74
2023/11/26 05:30:44;;;;;;;1.55;0.90;;;2.60;88.30;;;;;;5014757;28;20044;-73
2023/11/26 05:33:10;;;;;;;0.85;0.85;;;2.60;88.00;;;;;;4997042;28;20064;-74
2023/11/26 05:35:36;;;;;;;2.08;1.50;;;2.60;87.90;;;;;;5016197;28;20398;-75
2023/11/26 05:38:03;;;;;;;1.05;0.80;;;2.40;87.80;;;;;;5019279;28;20045;-75
2023/11/26 05:40:29;;;;;;;0.47;0.47;;;2.30;88.10;;;;;;5017731;28;20033;-74
2023/11/26 05:42:56;;;;;;;0.75;0.50;;;2.10;88.80;;;;;;5014820;28;20029;-75
2023/11/26 05:45:21;;;;;;;1.33;0.80;;;2.00;89.40;;;;;;5014720;28;20026;-75
2023/11/26 05:47:47;;;;;;;2.65;1.40;;;1.90;89.70;;;;;;5014522;28;20052;-74
2023/11/26 05:50:13;;;;;;;8.63;3.58;;;1.90;91.00;;;;;;5014367;28;20041;-76
2023/11/26 05:52:38;;;;;;;7.78;4.45;;;1.80;90.50;;;;;;5014385;28;20041;-75
2023/11/26 05:55:06;;;;;;;16.38;7.53;;;1.90;90.70;;;;;;5013839;28;20049;-75
2023/11/26 05:57:32;;;;;;;20.88;9.57;;;1.90;91.40;;;;;;5013249;28;20045;-75
2023/11/26 05:59:59;;;;;;;13.98;6.43;;;1.90;90.30;;;;;;5014068;28;20030;-77
2023/11/26 06:02:25;;;;;;;9.57;5.35;;;1.90;90.10;;;;;;5014225;28;20348;-76
2023/11/26 06:04:51;;;;;;;11.80;6.07;;;2.00;89.90;;;;;;5014307;28;20026;-76
2023/11/26 06:07:17;;;;;;;10.07;5.28;;;2.00;90.00;;;;;;5014114;28;20026;-76
2023/11/26 06:09:43;;;;;;;8.70;4.43;;;2.10;90.00;;;;;;5014017;28;20111;-74
2023/11/26 06:12:08;;;;;;;11.45;6.68;;;2.10;90.00;;;;;;5014071;28;20474;-76
2023/11/26 06:14:34;;;;;;;5.90;4.10;;;2.20;89.70;;;;;;4996476;28;20518;-76
2023/11/26 06:16:59;;;;;;;1.88;1.40;;;2.20;89.40;;;;;;4996380;28;20052;-76
2023/11/26 06:19:25;;;;;;;2.28;1.40;;;2.20;89.00;;;;;;5013904;28;20167;-76
2023/11/26 06:21:51;;;;;;;3.13;1.75;;;2.20;88.90;;;;;;5014009;28;20411;-75
2023/11/26 06:24:17;;;;;;;1.85;1.42;;;2.10;88.90;;;;;;5013908;28;20063;-75
2023/11/26 06:26:42;;;;;;;1.67;1.17;;;2.00;89.30;;;;;;4996257;28;20022;-75
2023/11/26 06:29:08;;;;;;;2.67;1.20;;;1.90;89.60;;;;;;5013913;28;20605;-75
2023/11/26 06:31:34;;;;;;;1.65;1.10;;;1.80;89.80;;;;;;5014035;28;20095;-75
2023/11/26 06:33:59;;;;;;;0.93;0.90;;;1.90;89.90;;;;;;5014005;28;20355;-75
2023/11/26 06:36:25;;;;;;;2.28;1.33;;;1.90;89.90;;;;;;5013771;28;20026;-75
2023/11/26 06:38:52;;;;;;;2.15;1.40;;;2.00;89.70;;;;;;4996435;28;20485;-75
2023/11/26 06:41:24;;;;;;;1.88;1.15;;;2.00;89.60;;;;;;5013683;28;20112;-76
2023/11/26 06:43:51;;;;;;;1.75;1.02;;;2.00;88.90;;;;;;5014811;28;20029;-75
2023/11/26 06:46:18;;;;;;;3.03;1.65;;;1.90;88.20;;;;;;5013639;28;20045;-75
2023/11/26 06:48:43;;;;;;;3.10;1.40;;;1.80;88.30;;;;;;5013639;28;20100;-75
2023/11/26 06:51:10;;;;;;;4.85;1.77;;;1.60;88.80;;;;;;5013470;28;20121;-75
2023/11/26 06:53:36;;;;;;;3.72;1.60;;;1.50;89.70;;;;;;5013342;28;20097;-75
2023/11/26 06:56:01;;;;;;;2.35;1.73;;;1.50;90.10;;;;;;5013504;28;20057;-76
2023/11/26 06:58:27;;;;;;;2.15;1.88;;;1.60;90.00;;;;;;5013286;28;20042;-76
2023/11/26 07:00:53;;;;;;;3.65;1.70;;;1.60;89.80;;;;;;4995824;28;20022;-76
2023/11/26 07:03:18;;;;;;;1.90;1.38;;;1.70;89.80;;;;;;5013363;28;20494;-75
2023/11/26 07:05:44;;;;;;;3.30;1.63;;;1.70;89.70;;;;;;5013110;28;20060;-76
2023/11/26 07:08:10;;;;;;;2.13;1.40;;;1.80;89.60;;;;;;5013076;28;20035;-75
2023/11/26 07:10:36;;;;;;;2.90;1.73;;;1.90;89.60;;;;;;5013227;28;20065;-76
2023/11/26 07:13:05;;;;;;;4.50;2.15;;;2.00;89.50;;;;;;5013276;28;20022;-76
2023/11/26 07:15:31;;;;;;;8.68;2.05;;;2.10;89.30;;;;;;5013627;28;20064;-75
2023/11/26 07:17:56;;;;;;;12.02;4.18;;;2.10;89.10;;;;;;5013248;28;20026;-76
2023/11/26 07:20:23;;;;;;;8.32;4.03;;;2.20;88.70;;;;;;5013066;28;20017;-76
2023/11/26 07:22:49;;;;;;;11.57;5.55;;;2.30;88.30;;;;;;5013126;28;20482;-76
2023/11/26 07:25:15;;;;;;;11.65;5.72;;;2.30;88.20;;;;;;5013317;28;20052;-77
2023/11/26 07:27:41;;;;;;;13.15;6.78;;;2.30;88.00;;;;;;5013552;28;20375;-77
2023/11/26 07:30:09;;;;;;;9.65;5.00;;;2.40;88.00;;;;;;5013826;28;20034;-77
2023/11/26 07:32:35;;;;;;;7.85;3.72;;;2.40;87.80;;;;;;5013057;28;20018;-75
2023/11/26 07:35:00;;;;;;;5.97;3.25;;;2.50;87.60;;;;;;5013001;28;20044;-76
2023/11/26 07:37:27;;;;;;;3.28;2.55;;;2.50;87.20;;;;;;5013056;28;20068;-75
2023/11/26 07:39:53;;;;;;;2.38;2.00;;;2.50;87.10;;;;;;5012913;28;20495;-77
2023/11/26 07:42:19;;;;;;;3.45;2.13;;;2.60;86.90;;;;;;5012894;28;20026;-77
2023/11/26 07:44:45;;;;;;;3.35;2.50;;;2.60;86.70;;;;;;5012839;28;20081;-76
2023/11/26 07:47:10;;;;;;;2.90;2.30;;;2.70;86.40;;;;;;4995199;28;20046;-76
2023/11/26 07:49:36;;;;;;;3.03;2.15;;;2.80;87.00;;;;;;5012563;28;20336;-76
2023/11/26 07:52:03;;;;;;;6.80;2.97;;;2.90;86.10;;;;;;5012656;28;20023;-75
2023/11/26 07:54:29;;;;;;;4.63;3.17;;;3.10;86.00;;;;;;5012605;28;20474;-75
2023/11/26 07:56:54;;;;;;;5.22;3.28;;;3.30;85.10;;;;;;5012549;28;20064;-76
2023/11/26 07:59:20;;;;;;;4.35;2.83;;;3.50;84.80;;;;;;5012217;28;20054;-76
2023/11/26 08:01:49;;;;;;;3.42;2.60;;;3.60;83.80;;;;;;5012815;28;20113;-76
2023/11/26 08:04:15;;;;;;;2.25;2.05;;;3.80;83.00;;;;;;5012932;28;20021;-76
2023/11/26 08:06:42;;;;;;;3.58;2.47;;;4.10;82.00;;;;;;5014567;28;20034;-75
2023/11/26 08:09:10;;;;;;;4.13;2.33;;;4.20;81.10;;;;;;5012696;28;20022;-76
2023/11/26 08:11:46;;;;;;;3.80;2.88;;;4.30;80.80;;;;;;5012795;28;20026;-75
2023/11/26 08:14:13;;;;;;;5.97;2.78;;;4.40;80.30;;;;;;5012769;28;20018;-75
2023/11/26 08:16:43;;;;;;;4.75;2.63;;;4.60;79.70;;;;;;5012568;28;20054;-76
2023/11/26 08:19:13;;;;;;;3.95;2.30;;;4.70;79.10;;;;;;5012771;28;20101;-77
2023/11/26 08:21:41;;;;;;;9.38;5.13;;;4.70;78.70;;;;;;5016442;28;20017;-76
2023/11/26 08:24:13;;;;;;;13.15;6.75;;;4.70;78.30;;;;;;5018677;28;20544;-76
2023/11/26 08:26:40;;;;;;;13.40;7.70;;;4.60;78.40;;;;;;5021357;28;20076;-77
2023/11/26 08:29:09;;;;;;;8.85;5.80;;;4.40;78.60;;;;;;5020726;28;20410;-77
2023/11/26 08:31:35;;;;;;;9.02;4.65;;;4.40;79.00;;;;;;5019312;28;20026;-75
2023/11/26 08:34:01;;;;;;;4.85;3.55;;;4.20;79.20;;;;;;5016212;28;20104;-75
2023/11/26 08:36:30;;;;;;;5.13;3.30;;;4.20;79.40;;;;;;5015962;28;20026;-75
2023/11/26 08:38:57;;;;;;;6.35;3.90;;;4.10;79.80;;;;;;5016066;28;20101;-75
2023/11/26 08:41:25;;;;;;;6.65;4.70;;;4.10;80.10;;;;;;5015901;28;20096;-75
2023/11/26 08:43:50;;;;;;;15.82;5.20;;;4.00;80.00;;;;;;5016056;28;20076;-81
2023/11/26 08:46:17;;;;;;;8.48;5.32;;;4.10;87.70;;;;;;5016025;28;20021;-81
2023/11/26 08:48:44;;;;;;;11.88;6.60;;;4.50;91.80;;;;;;5016005;28;20540;-81
2023/11/26 08:51:10;;;;;;;15.30;9.40;;;4.60;90.60;;;;;;5016255;28;20052;-81
2023/11/26 08:53:36;;;;;;;12.02;6.50;;;4.70;84.50;;;;;;5016119;28;20022;-80
2023/11/26 08:56:02;;;;;;;13.80;8.07;;;4.70;82.60;;;;;;5015980;28;20490;-84
2023/11/26 08:58:27;;;;;;;16.85;9.27;;;4.80;81.20;;;;;;5017015;28;20073;-75
2023/11/26 09:00:53;;;;;;;15.02;9.88;;;5.00;79.30;;;;;;5016263;28;20022;-75
2023/11/26 09:03:19;;;;;;;13.90;9.18;;;4.90;78.10;;;;;;5015632;28;20022;-75
2023/11/26 09:05:44;;;;;;;13.23;8.55;;;4.80;78.50;;;;;;4997668;28;20479;-75
2023/11/26 09:08:10;;;;;;;11.15;7.97;;;4.60;78.50;;;;;;5015431;28;20562;-75
2023/11/26 09:10:35;;;;;;;9.75;7.53;;;4.50;78.90;;;;;;4997694;28;20092;-76
2023/11/26 09:13:01;;;;;;;11.57;6.18;;;4.40;79.20;;;;;;5015177;28;20022;-75
2023/11/26 09:15:28;;;;;;;8.25;5.65;;;4.40;79.50;;;;;;5015218;28;20026;-75
2023/11/26 09:17:54;;;;;;;7.53;5.03;;;4.40;79.50;;;;;;5015050;28;20018;-75
2023/11/26 09:20:19;;;;;;;10.18;5.55;;;4.40;79.50;;;;;;5015144;28;20072;-76
2023/11/26 09:22:48;;;;;;;13.60;6.20;;;4.30;79.60;;;;;;4997437;28;20040;-75
2023/11/26 09:25:13;;;;;;;10.85;5.55;;;4.30;79.80;;;;;;5015937;28;20152;-75
2023/11/26 09:27:43;;;;;;;10.43;4.97;;;4.30;79.90;;;;;;5015022;28;20100;-75
2023/11/26 09:30:09;;;;;;;11.45;5.10;;;4.30;79.90;;;;;;5014920;28;20029;-75
2023/11/26 09:32:35;;;;;;;13.73;8.27;;;4.30;79.90;;;;;;5015018;28;20025;-75
2023/11/26 09:35:01;;;;;;;10.40;6.45;;;4.30;79.70;;;;;;5014632;28;20498;-75
2023/11/26 09:37:28;;;;;;;10.40;6.57;;;4.40;79.70;;;;;;5014798;28;20088;-75
2023/11/26 09:39:53;;;;;;;12.48;6.20;;;4.40;79.50;;;;;;4996892;28;20029;-75
2023/11/26 09:42:23;;;;;;;10.55;5.97;;;4.50;79.40;;;;;;5014645;28;20038;-75
2023/11/26 09:44:49;;;;;;;12.65;8.15;;;4.60;79.00;;;;;;5014648;28;20018;-75
2023/11/26 09:47:15;;;;;;;17.67;8.80;;;4.60;77.90;;;;;;5014574;28;20053;-76
2023/11/26 09:49:41;;;;;;;15.80;10.85;;;4.70;77.90;;;;;;5014458;28;20058;-74
2023/11/26 09:52:08;;;;;;;18.98;10.98;;;4.60;77.70;;;;;;5014493;28;20092;-75
2023/11/26 09:54:34;;;;;;;22.35;12.65;;;4.70;77.90;;;;;;5014524;28;20017;-76
2023/11/26 09:57:01;;;;;;;21.55;12.32;;;4.70;78.90;;;;;;5014514;28;20478;-75
2023/11/26 09:59:28;;;;;;;20.95;12.65;;;4.80;77.90;;;;;;5013918;28;20054;-74
2023/11/26 10:01:54;;;;;;;16.65;11.18;;;4.70;77.80;;;;;;5014473;28;20025;-73
2023/11/26 10:04:21;;;;;;;16.55;9.82;;;4.70;78.00;;;;;;5014354;28;20105;-73
2023/11/26 10:06:52;;;;;;;12.35;8.73;;;4.60;78.00;;;;;;5014321;28;20033;-74
2023/11/26 10:09:18;;;;;;;12.25;7.88;;;4.60;78.30;;;;;;4996604;28;20050;-73
2023/11/26 10:11:47;;;;;;;10.73;5.88;;;4.60;78.30;;;;;;4996706;28;20478;-74
2023/11/26 10:14:18;;;;;;;11.70;5.63;;;4.70;78.30;;;;;;5014182;28;20021;-76
2023/11/26 10:16:44;;;;;;;9.35;5.00;;;4.70;78.40;;;;;;5014262;28;20411;-75
2023/11/26 10:19:30;;;;;;;6.43;4.18;;;4.70;78.30;;;;;;4996874;28;20030;-75
2023/11/26 10:21:58;;;;;;;5.90;3.80;;;4.90;78.30;;;;;;5015655;28;20509;-75
2023/11/26 10:24:28;;;;;;;7.50;3.90;;;5.10;77.90;;;;;;4996488;28;20116;-75
2023/11/26 10:26:57;;;;;;;7.97;3.88;;;5.40;77.20;;;;;;4996616;28;20117;-75
2023/11/26 10:29:28;;;;;;;7.28;3.80;;;5.60;76.10;;;;;;4996364;28;20030;-79
2023/11/26 10:32:02;;;;;;;8.30;4.18;;;5.60;75.40;;;;;;4996312;28;20033;-76
2023/11/26 10:34:33;;;;;;;6.90;4.68;;;5.70;75.90;;;;;;4996610;28;20029;-78
2023/11/26 10:36:59;;;;;;;8.70;4.68;;;5.80;74.60;;;;;;4996517;28;20033;-80
2023/11/26 10:39:25;;;;;;;8.93;4.90;;;5.80;74.20;;;;;;4996439;28;20026;-74
2023/11/26 10:41:51;;;;;;;8.60;4.40;;;5.80;74.00;;;;;;4995966;28;20030;-77
2023/11/26 10:44:17;;;;;;;8.18;4.60;;;5.80;74.00;;;;;;4996175;28;20033;-75
2023/11/26 10:46:46;;;;;;;11.15;4.85;;;5.80;74.00;;;;;;4998933;28;20029;-75
2023/11/26 10:49:14;;;;;;;8.55;4.78;;;5.80;74.10;;;;;;4995872;28;20088;-76
2023/11/26 10:51:46;;;;;;;11.05;6.25;;;5.70;74.40;;;;;;4996097;28;20029;-77
2023/11/26 10:54:19;;;;;;;11.00;6.32;;;5.70;74.30;;;;;;4996141;28;20029;-76
2023/11/26 10:56:51;;;;;;;10.00;5.97;;;5.80;74.10;;;;;;5013448;28;20026;-76
2023/11/26 10:59:19;;;;;;;18.45;7.95;;;5.80;74.00;;;;;;5013367;28;20125;-76
2023/11/26 11:01:45;;;;;;;11.32;6.18;;;5.70;73.10;;;;;;5013435;28;20017;-77
2023/11/26 11:04:15;;;;;;;24.75;11.52;;;5.60;72.40;;;;;;4995904;28;20048;-77
2023/11/26 11:06:43;;;;;;;7.40;3.53;;;5.20;72.40;;;;;;5013345;28;20056;-77
2023/11/26 11:09:13;;;;;;;13.68;7.95;;;4.70;73.00;;;;;;4995933;28;20112;-75
2023/11/26 11:11:58;;;;;;;6.65;3.10;;;4.50;74.60;;;;;;4996158;28;20061;-75
2023/11/26 11:14:26;;;;;;;4.75;2.85;;;4.60;74.80;;;;;;5029716;28;20041;-76
2023/11/26 11:16:52;;;;;;;9.40;6.28;;;5.60;72.30;;;;;;5034473;28;20037;-77
2023/11/26 11:19:46;;;;;;;7.97;3.42;;;5.70;70.90;;;;;;4997968;28;20111;-77
2023/11/26 11:22:11;;;;;;;2.63;2.15;;;6.20;70.20;;;;;;4999374;28;20045;-77
2023/11/26 11:24:39;;;;;;;5.85;2.72;;;6.50;68.20;;;;;;5014697;28;20487;-77
2023/11/26 11:27:06;;;;;;;9.15;3.05;;;6.40;67.80;;;;;;5013193;28;20038;-77
2023/11/26 11:29:32;;;;;;;6.22;2.50;;;6.30;68.70;;;;;;4995007;28;20029;-77
2023/11/26 11:32:00;;;;;;;5.43;2.65;;;6.30;68.00;;;;;;5011626;28;20033;-76
2023/11/26 11:34:26;;;;;;;4.07;2.47;;;5.60;70.20;;;;;;4995833;28;20090;-76
2023/11/26 11:36:56;;;;;;;3.05;2.17;;;5.50;71.20;;;;;;4995164;28;20423;-78
2023/11/26 11:39:27;;;;;;;3.08;2.08;;;5.30;70.90;;;;;;4995278;28;20108;-75
2023/11/26 11:41:58;;;;;;;4.40;2.60;;;5.10;72.00;;;;;;4995149;28;20026;-76
2023/11/26 11:44:35;;;;;;;6.32;2.70;;;5.10;72.90;;;;;;5012959;28;20026;-76
2023/11/26 11:47:07;;;;;;;5.97;2.72;;;5.10;72.80;;;;;;4995327;28;20125;-75
2023/11/26 11:49:44;;;;;;;10.02;3.63;;;5.10;73.00;;;;;;4995162;28;20030;-75
2023/11/26 11:52:12;;;;;;;11.70;6.63;;;5.30;73.30;;;;;;4995264;28;20033;-77
2023/11/26 11:54:56;;;;;;;12.65;7.10;;;5.40;73.40;;;;;;4996551;28;20119;-76
2023/11/26 11:57:38;;;;;;;6.90;4.47;;;6.00;72.10;;;;;;4999222;28;20026;-75
2023/11/26 12:00:08;;;;;;;9.88;5.22;;;7.20;68.00;;;;;;4999314;28;20124;-76
2023/11/26 12:02:34;;;;;;;6.82;2.97;;;8.00;64.20;;;;;;5017571;28;20033;-76
2023/11/26 12:05:03;;;;;;;4.13;2.47;;;8.40;60.30;;;;;;4998265;28;20026;-76
2023/11/26 12:07:32;;;;;;;4.53;3.28;;;8.90;58.50;;;;;;4999144;28;20026;-76
2023/11/26 12:10:01;;;;;;;4.47;2.85;;;9.10;57.20;;;;;;4998930;28;20038;-76
2023/11/26 12:12:27;;;;;;;4.57;2.80;;;9.20;54.90;;;;;;4999055;28;20081;-76
2023/11/26 12:14:53;;;;;;;4.07;2.83;;;8.60;56.50;;;;;;4997281;28;20077;-76
2023/11/26 12:17:21;;;;;;;4.15;3.30;;;8.10;58.10;;;;;;4997665;28;20076;-76
2023/11/26 12:19:48;;;;;;;6.22;3.88;;;7.90;58.40;;;;;;4998291;28;20026;-76
2023/11/26 12:22:14;;;;;;;5.55;3.20;;;7.50;60.20;;;;;;4998726;28;20032;-76
2023/11/26 12:24:40;;;;;;;6.35;3.20;;;7.20;62.10;;;;;;5016144;28;20030;-75
2023/11/26 12:27:08;;;;;;;10.27;5.03;;;7.00;63.10;;;;;;4998059;28;20054;-77
2023/11/26 12:29:36;;;;;;;9.10;4.65;;;6.80;63.40;;;;;;4998127;28;20030;-76
2023/11/26 12:32:05;;;;;;;8.15;4.03;;;6.80;64.20;;;;;;5016163;28;20076;-76
2023/11/26 12:34:38;;;;;;;3.72;2.22;;;6.80;64.00;;;;;;5015615;28;20022;-77
2023/11/26 12:37:09;;;;;;;5.65;2.83;;;6.70;64.60;;;;;;4998224;28;20026;-76
2023/11/26 12:39:38;;;;;;;6.45;4.00;;;8.20;62.90;;;;;;4998769;28;20478;-75
2023/11/26 12:42:04;;;;;;;4.93;3.00;;;11.00;54.10;;;;;;4998561;28;20026;-75
2023/11/26 12:44:33;;;;;;;3.97;1.45;;;14.30;45.30;;;;;;4998078;28;20026;-76
2023/11/26 12:47:09;;;;;;;4.18;1.58;;;16.40;36.70;;;;;;4997794;28;20030;-76
2023/11/26 12:49:35;;;;;;;2.15;1.17;;;17.80;32.60;;;;;;4997435;28;20058;-76
2023/11/26 12:52:01;;;;;;;1.98;1.23;;;16.50;34.50;;;;;;4998098;28;20038;-76
2023/11/26 12:54:27;;;;;;;3.85;1.42;;;16.70;34.40;;;;;;4998228;28;20052;-75
2023/11/26 12:56:56;;;;;;;2.33;1.65;;;16.70;34.10;;;;;;4998299;28;20029;-75